Time;durP1;ratioP1;P1;durP2;ratioP2;P2;SDS_P1;SDS_P2;PMS_P1;PMS_P2;Temp;Humidity;BMP_temperature;BMP_pressure;BME280_temperature;BME280_humidity;BME280_pressure;Samples;Min_cycle;Max_cycle;Signal;HPM_P1;HPM_P2
2022/10/28 00:01:14;;;;;;;7.22;3.00;;;19.70;99.90;;;;;;5039831;28;20249;-79
2022/10/28 00:03:48;;;;;;;4.10;2.78;;;19.70;99.90;;;;;;5039571;28;20229;-78
2022/10/28 00:06:26;;;;;;;5.68;2.85;;;19.80;99.90;;;;;;5051842;28;20185;-76
2022/10/28 00:08:52;;;;;;;4.05;2.33;;;19.70;99.90;;;;;;5036408;28;20196;-78
2022/10/28 00:11:24;;;;;;;3.92;2.55;;;19.80;99.90;;;;;;5039250;28;20242;-77
2022/10/28 00:13:54;;;;;;;5.75;2.85;;;19.80;99.90;;;;;;5047137;28;20178;-76
2022/10/28 00:16:26;;;;;;;5.47;2.60;;;19.80;99.90;;;;;;5038277;28;20175;-76
2022/10/28 00:18:52;;;;;;;5.05;2.55;;;19.80;99.90;;;;;;5035440;28;20226;-78
2022/10/28 00:21:27;;;;;;;4.80;2.53;;;19.80;99.90;;;;;;5039290;28;20174;-76
2022/10/28 00:23:53;;;;;;;11.07;2.50;;;19.80;99.90;;;;;;5050744;28;20173;-75
2022/10/28 00:26:23;;;;;;;6.43;3.05;;;19.80;99.90;;;;;;5044482;28;20166;-77
2022/10/28 00:28:57;;;;;;;6.45;2.88;;;19.80;99.90;;;;;;5043475;28;20297;-77
2022/10/28 00:31:25;;;;;;;6.93;2.75;;;19.80;99.90;;;;;;5038822;28;20185;-76
2022/10/28 00:33:51;;;;;;;5.80;2.30;;;19.80;99.90;;;;;;5034351;28;20209;-76
2022/10/28 00:36:21;;;;;;;3.50;2.40;;;19.90;99.90;;;;;;5042306;28;20201;-77
2022/10/28 00:38:50;;;;;;;5.07;2.47;;;19.90;99.90;;;;;;5038900;28;20221;-77
2022/10/28 00:41:37;;;;;;;5.78;2.65;;;19.90;99.90;;;;;;5048399;28;20180;-77
2022/10/28 00:44:40;;;;;;;4.90;2.58;;;19.90;99.90;;;;;;5047030;28;20182;-77
2022/10/28 00:47:29;;;;;;;6.43;2.70;;;19.90;99.90;;;;;;5065651;28;20173;-76
2022/10/28 00:50:05;;;;;;;3.42;2.28;;;19.90;99.90;;;;;;5030257;28;20182;-77
2022/10/28 00:52:31;;;;;;;7.20;2.60;;;20.00;99.90;;;;;;5055904;28;20227;-76
2022/10/28 00:55:01;;;;;;;6.68;2.42;;;20.00;99.90;;;;;;5042533;28;20186;-76
2022/10/28 00:57:31;;;;;;;5.43;2.42;;;20.00;99.90;;;;;;5048203;28;20244;-75
2022/10/28 00:59:58;;;;;;;6.32;2.47;;;20.00;99.90;;;;;;5047741;28;20205;-75
2022/10/28 01:02:26;;;;;;;4.72;2.17;;;20.10;99.90;;;;;;5061529;28;20224;-74
2022/10/28 01:04:52;;;;;;;4.53;2.33;;;20.10;99.90;;;;;;5046441;28;20209;-75
2022/10/28 01:07:18;;;;;;;4.00;2.35;;;20.10;99.90;;;;;;5049542;28;20205;-75
2022/10/28 01:09:47;;;;;;;4.53;2.33;;;20.10;99.90;;;;;;5045619;28;20189;-75
2022/10/28 01:12:24;;;;;;;6.65;2.67;;;20.10;99.90;;;;;;5041875;28;20370;-75
2022/10/28 01:14:58;;;;;;;2.95;2.20;;;20.10;99.90;;;;;;5044841;28;20174;-76
2022/10/28 01:17:32;;;;;;;5.13;2.28;;;20.20;99.90;;;;;;5048934;28;20177;-76
2022/10/28 01:20:10;;;;;;;3.03;2.30;;;20.10;99.90;;;;;;5038483;28;20173;-76
2022/10/28 01:22:41;;;;;;;4.30;2.50;;;20.10;99.90;;;;;;5045003;28;20165;-76
2022/10/28 01:25:25;;;;;;;3.80;2.50;;;20.10;99.90;;;;;;5046643;28;20189;-76
2022/10/28 01:28:10;;;;;;;3.85;2.60;;;20.10;99.90;;;;;;5033601;28;20201;-76
2022/10/28 01:30:58;;;;;;;2.28;1.92;;;20.10;99.90;;;;;;5050491;28;20217;-78
2022/10/28 01:33:41;;;;;;;5.15;2.33;;;20.10;99.90;;;;;;5058515;28;20182;-76
2022/10/28 01:36:17;;;;;;;4.80;2.70;;;20.10;99.90;;;;;;5038087;28;20213;-75
2022/10/28 01:38:49;;;;;;;4.10;2.53;;;20.10;99.90;;;;;;5057111;28;20205;-76
2022/10/28 01:41:14;;;;;;;6.10;2.70;;;20.10;99.90;;;;;;5041651;28;20170;-76
2022/10/28 01:43:54;;;;;;;5.63;2.50;;;20.00;99.90;;;;;;5040906;28;20170;-75
2022/10/28 01:46:52;;;;;;;4.97;2.60;;;20.10;99.90;;;;;;5035330;28;20204;-76
2022/10/28 01:49:44;;;;;;;4.80;2.67;;;20.10;99.90;;;;;;5041075;28;20182;-76
2022/10/28 01:52:12;;;;;;;6.75;2.63;;;20.10;99.90;;;;;;5037551;28;20205;-75
2022/10/28 01:54:43;;;;;;;5.63;2.63;;;20.10;99.90;;;;;;5041405;28;20197;-75
2022/10/28 01:57:11;;;;;;;5.35;2.45;;;20.00;99.90;;;;;;5048445;28;20171;-76
2022/10/28 01:59:38;;;;;;;4.47;2.65;;;20.00;99.90;;;;;;5034728;28;20198;-77
2022/10/28 02:02:04;;;;;;;4.20;2.33;;;20.00;99.90;;;;;;5038845;28;20201;-78
2022/10/28 02:04:29;;;;;;;4.65;2.20;;;20.00;99.90;;;;;;5056729;28;20209;-75
2022/10/28 02:06:58;;;;;;;5.15;2.63;;;20.00;99.90;;;;;;5037590;28;20188;-74
2022/10/28 02:09:45;;;;;;;5.50;2.63;;;20.00;99.90;;;;;;5044823;28;20202;-75
2022/10/28 02:12:30;;;;;;;6.95;2.55;;;19.90;99.90;;;;;;5048357;28;20179;-75
2022/10/28 02:15:11;;;;;;;7.13;2.50;;;19.90;99.90;;;;;;5056122;28;20186;-76
2022/10/28 02:17:55;;;;;;;5.28;2.30;;;19.90;99.90;;;;;;5037029;28;20224;-75
2022/10/28 02:20:47;;;;;;;4.95;2.67;;;19.90;99.90;;;;;;5024507;28;20194;-76
2022/10/28 02:23:30;;;;;;;4.70;2.60;;;19.90;99.90;;;;;;5030460;28;20185;-75
2022/10/28 02:26:03;;;;;;;3.72;2.17;;;19.90;99.90;;;;;;5048349;28;20214;-77
2022/10/28 02:28:55;;;;;;;3.97;2.45;;;19.90;99.90;;;;;;5050411;28;20327;-76
2022/10/28 02:31:24;;;;;;;3.85;2.30;;;19.90;99.90;;;;;;5035312;28;20186;-76
2022/10/28 02:33:57;;;;;;;3.95;2.20;;;19.80;99.90;;;;;;5041407;28;20194;-75
2022/10/28 02:36:26;;;;;;;3.85;2.38;;;19.90;99.90;;;;;;5035139;28;20273;-76
2022/10/28 02:38:55;;;;;;;3.67;2.30;;;19.90;99.90;;;;;;5032628;28;20205;-77
2022/10/28 02:41:26;;;;;;;5.07;2.38;;;19.80;99.90;;;;;;5032713;28;20494;-74
2022/10/28 02:43:59;;;;;;;4.30;2.38;;;19.80;99.90;;;;;;5034611;28;20178;-75
2022/10/28 02:46:30;;;;;;;4.60;2.63;;;19.80;99.90;;;;;;5031865;28;20236;-75
2022/10/28 02:49:03;;;;;;;4.00;2.80;;;19.80;99.90;;;;;;5060750;28;20233;-75
2022/10/28 02:51:37;;;;;;;3.28;2.35;;;19.70;99.90;;;;;;5047416;28;20218;-76
2022/10/28 02:54:13;;;;;;;7.18;2.75;;;19.70;99.90;;;;;;5033281;28;20177;-76
2022/10/28 02:57:02;;;;;;;4.95;2.75;;;19.60;99.90;;;;;;5059678;28;20228;-75
2022/10/28 02:59:30;;;;;;;4.22;2.42;;;19.60;99.90;;;;;;5036166;28;20216;-76
2022/10/28 03:02:00;;;;;;;4.63;2.58;;;19.60;99.90;;;;;;5034264;28;20178;-76
2022/10/28 03:04:28;;;;;;;3.95;2.25;;;19.60;99.90;;;;;;5035638;28;20288;-75
2022/10/28 03:06:53;;;;;;;3.22;2.17;;;19.50;99.90;;;;;;5035782;28;20184;-76
2022/10/28 03:09:24;;;;;;;5.05;2.88;;;19.50;99.90;;;;;;5031623;28;20174;-75
2022/10/28 03:11:49;;;;;;;3.20;2.60;;;19.50;99.90;;;;;;5032431;28;20202;-75
2022/10/28 03:14:15;;;;;;;5.15;2.53;;;19.40;99.90;;;;;;5033004;28;20217;-76
2022/10/28 03:16:43;;;;;;;3.80;2.90;;;19.40;99.90;;;;;;5035222;28;20170;-76
2022/10/28 03:19:09;;;;;;;6.45;2.95;;;19.40;99.90;;;;;;5031898;28;20194;-75
2022/10/28 03:21:35;;;;;;;6.15;3.58;;;19.50;99.90;;;;;;5034278;28;20178;-78
2022/10/28 03:24:00;;;;;;;8.63;3.25;;;19.50;99.90;;;;;;5051672;28;20166;-74
2022/10/28 03:26:28;;;;;;;4.75;2.60;;;19.50;99.90;;;;;;5035027;28;20194;-75
2022/10/28 03:28:53;;;;;;;7.07;2.80;;;19.50;99.90;;;;;;5033936;28;20228;-76
2022/10/28 03:31:19;;;;;;;5.93;2.90;;;19.50;99.90;;;;;;5043335;28;20170;-75
2022/10/28 03:33:45;;;;;;;4.10;2.88;;;19.50;99.90;;;;;;5039116;28;20280;-75
2022/10/28 03:36:10;;;;;;;5.05;2.70;;;19.60;99.90;;;;;;5052498;28;20198;-76
2022/10/28 03:38:38;;;;;;;6.45;2.80;;;19.60;99.90;;;;;;5043904;28;20243;-76
2022/10/28 03:41:06;;;;;;;3.65;2.42;;;19.60;99.90;;;;;;5054474;28;20186;-75
2022/10/28 03:43:32;;;;;;;5.05;2.90;;;19.60;99.90;;;;;;5040014;28;20201;-76
2022/10/28 03:45:59;;;;;;;6.20;2.80;;;19.50;99.90;;;;;;5042673;28;20274;-75
2022/10/28 03:48:28;;;;;;;5.85;2.47;;;19.50;99.90;;;;;;5037335;28;20178;-75
2022/10/28 03:50:54;;;;;;;5.75;2.45;;;19.50;99.90;;;;;;5041724;28;20174;-76
2022/10/28 03:53:20;;;;;;;5.20;2.72;;;19.50;99.90;;;;;;5038215;28;20178;-75
2022/10/28 03:55:53;;;;;;;4.90;2.58;;;19.40;99.90;;;;;;5050279;28;20178;-75
2022/10/28 03:58:22;;;;;;;6.15;3.83;;;19.40;99.90;;;;;;5036257;28;20198;-75
2022/10/28 04:00:49;;;;;;;8.25;4.63;;;19.30;99.90;;;;;;5038536;28;20251;-75
2022/10/28 04:03:15;;;;;;;5.22;3.47;;;19.30;99.90;;;;;;5036704;28;20225;-75
2022/10/28 04:05:41;;;;;;;5.45;3.28;;;19.30;99.90;;;;;;5035839;28;20192;-76
2022/10/28 04:08:07;;;;;;;4.05;2.72;;;19.20;99.90;;;;;;5039589;28;20261;-75
2022/10/28 04:10:32;;;;;;;6.03;2.95;;;19.20;99.90;;;;;;5044203;28;20185;-76
2022/10/28 04:13:04;;;;;;;5.60;2.58;;;19.20;99.90;;;;;;5041791;28;20186;-76
2022/10/28 04:15:30;;;;;;;3.05;2.50;;;19.20;99.90;;;;;;5043476;28;20206;-75
2022/10/28 04:17:56;;;;;;;5.03;2.53;;;19.10;99.90;;;;;;5059173;28;20335;-76
2022/10/28 04:20:22;;;;;;;10.57;7.57;;;19.10;99.90;;;;;;5040330;28;20216;-75
2022/10/28 04:22:51;;;;;;;7.53;4.22;;;19.10;99.90;;;;;;5035651;28;20198;-74
2022/10/28 04:25:19;;;;;;;10.07;3.78;;;19.10;99.90;;;;;;5053750;28;20190;-75
2022/10/28 04:27:45;;;;;;;5.95;3.28;;;19.00;99.90;;;;;;5022706;28;20191;-75
2022/10/28 04:30:13;;;;;;;6.55;2.70;;;19.00;99.90;;;;;;5041705;28;20200;-76
2022/10/28 04:32:45;;;;;;;4.05;2.60;;;19.00;99.90;;;;;;5027524;28;20189;-75
2022/10/28 04:35:11;;;;;;;5.30;3.00;;;19.00;99.90;;;;;;5039219;28;20178;-76
2022/10/28 04:37:38;;;;;;;5.43;3.17;;;19.00;99.90;;;;;;5037067;28;20209;-76
2022/10/28 04:40:05;;;;;;;5.50;3.53;;;18.90;99.90;;;;;;5041982;28;20170;-74
2022/10/28 04:42:30;;;;;;;6.47;3.63;;;18.90;99.90;;;;;;5054399;28;20204;-73
2022/10/28 04:44:56;;;;;;;5.80;3.45;;;18.90;99.90;;;;;;5033463;28;20186;-74
2022/10/28 04:47:22;;;;;;;11.27;5.85;;;18.90;99.90;;;;;;5054427;28;20204;-73
2022/10/28 04:49:50;;;;;;;8.07;4.60;;;18.90;99.90;;;;;;5035772;28;20194;-74
2022/10/28 04:52:21;;;;;;;6.70;3.65;;;18.90;99.90;;;;;;5034796;28;20257;-75
2022/10/28 04:54:51;;;;;;;5.60;3.50;;;18.80;99.90;;;;;;5037131;28;20178;-73
2022/10/28 04:57:19;;;;;;;6.05;2.95;;;18.80;99.90;;;;;;5038625;28;20220;-75
2022/10/28 04:59:47;;;;;;;7.25;3.10;;;18.80;99.90;;;;;;5052669;28;20231;-75
2022/10/28 05:02:15;;;;;;;8.18;3.33;;;18.80;99.90;;;;;;5044719;28;20199;-74
2022/10/28 05:04:41;;;;;;;6.28;3.50;;;18.70;99.90;;;;;;5041580;28;20174;-74
2022/10/28 05:07:06;;;;;;;8.38;3.90;;;18.70;99.90;;;;;;5046903;28;20197;-73
2022/10/28 05:09:34;;;;;;;6.72;3.95;;;18.70;99.90;;;;;;5053542;28;20202;-74
2022/10/28 05:11:59;;;;;;;6.93;3.50;;;18.70;99.90;;;;;;5033191;28;20171;-75
2022/10/28 05:14:27;;;;;;;7.88;3.35;;;18.70;99.90;;;;;;5037252;28;20224;-74
2022/10/28 05:16:55;;;;;;;4.70;2.80;;;18.70;99.90;;;;;;5046350;28;20221;-74
2022/10/28 05:19:23;;;;;;;8.38;3.08;;;18.70;99.90;;;;;;5057502;28;20248;-75
2022/10/28 05:21:49;;;;;;;5.85;3.13;;;18.60;99.90;;;;;;5039212;28;20188;-75
2022/10/28 05:24:17;;;;;;;5.97;3.10;;;18.60;99.90;;;;;;5052287;28;20273;-75
2022/10/28 05:26:42;;;;;;;4.78;2.72;;;18.60;99.90;;;;;;5046556;28;20163;-75
2022/10/28 05:29:10;;;;;;;4.88;2.65;;;18.60;99.90;;;;;;5031602;28;20179;-76
2022/10/28 05:31:36;;;;;;;6.05;2.67;;;18.60;99.90;;;;;;5041825;28;20194;-75
2022/10/28 05:34:01;;;;;;;4.38;2.65;;;18.60;99.90;;;;;;5049007;28;20188;-74
2022/10/28 05:36:27;;;;;;;6.13;3.00;;;18.70;99.90;;;;;;5066213;28;20174;-74
2022/10/28 05:38:52;;;;;;;4.68;2.70;;;18.70;99.90;;;;;;5054359;28;20269;-74
2022/10/28 05:41:18;;;;;;;8.93;2.83;;;18.70;99.90;;;;;;5041654;28;20174;-74
2022/10/28 05:43:46;;;;;;;5.53;3.22;;;18.70;99.90;;;;;;5047580;28;20194;-74
2022/10/28 05:46:11;;;;;;;6.38;2.67;;;18.70;99.90;;;;;;5026102;28;20194;-74
2022/10/28 05:48:39;;;;;;;6.35;2.88;;;18.70;99.90;;;;;;5023832;28;20237;-74
2022/10/28 05:51:05;;;;;;;5.85;2.78;;;18.70;99.90;;;;;;5041496;28;20172;-74
2022/10/28 05:53:31;;;;;;;6.22;3.03;;;18.70;99.90;;;;;;5044636;28;20193;-74
2022/10/28 05:55:56;;;;;;;6.50;3.22;;;18.80;99.90;;;;;;5064541;28;20189;-75
2022/10/28 05:58:24;;;;;;;4.63;2.75;;;18.80;99.90;;;;;;5052458;28;20205;-74
2022/10/28 06:00:50;;;;;;;6.07;3.00;;;18.90;99.90;;;;;;5036708;28;20198;-75
2022/10/28 06:03:15;;;;;;;6.82;2.85;;;18.90;99.90;;;;;;5040263;28;20181;-74
2022/10/28 06:05:43;;;;;;;5.13;2.95;;;19.00;99.90;;;;;;5041473;28;20205;-75
2022/10/28 06:08:11;;;;;;;5.93;2.90;;;19.00;99.90;;;;;;5050643;28;20180;-75
2022/10/28 06:10:37;;;;;;;4.97;2.70;;;19.10;99.90;;;;;;5041188;28;20182;-75
2022/10/28 06:13:03;;;;;;;5.28;2.95;;;19.10;99.90;;;;;;5058856;28;20252;-75
2022/10/28 06:15:28;;;;;;;4.18;2.88;;;19.10;99.90;;;;;;5049188;28;20193;-75
2022/10/28 06:17:57;;;;;;;4.80;2.63;;;19.10;99.90;;;;;;5061364;28;20210;-74
2022/10/28 06:20:22;;;;;;;7.30;3.42;;;19.20;99.90;;;;;;5060291;28;20197;-76
2022/10/28 06:22:50;;;;;;;7.32;3.08;;;19.20;99.90;;;;;;5041653;28;20193;-75
2022/10/28 06:25:16;;;;;;;6.22;2.90;;;19.20;99.90;;;;;;5029969;28;20170;-74
2022/10/28 06:27:42;;;;;;;5.47;2.85;;;19.20;99.90;;;;;;5037796;28;20228;-75
2022/10/28 06:30:08;;;;;;;6.63;3.13;;;19.20;99.90;;;;;;5043801;28;20189;-75
2022/10/28 06:32:34;;;;;;;8.70;3.35;;;19.30;99.90;;;;;;5037997;28;20162;-75
2022/10/28 06:34:59;;;;;;;5.28;2.92;;;19.30;99.90;;;;;;5028412;28;20204;-75
2022/10/28 06:37:30;;;;;;;6.00;2.72;;;19.30;99.90;;;;;;5032213;28;20190;-75
2022/10/28 06:39:57;;;;;;;4.85;2.47;;;19.30;99.90;;;;;;5037224;28;20212;-74
2022/10/28 06:42:23;;;;;;;7.75;2.72;;;19.30;99.90;;;;;;5032117;28;20198;-74
2022/10/28 06:44:49;;;;;;;4.60;2.70;;;19.30;99.90;;;;;;5028951;28;20266;-75
2022/10/28 06:47:15;;;;;;;6.82;2.65;;;19.30;99.90;;;;;;5035377;28;20289;-74
2022/10/28 06:49:40;;;;;;;6.65;2.47;;;19.30;99.90;;;;;;5035321;28;20210;-74
2022/10/28 06:52:08;;;;;;;3.65;2.50;;;19.40;99.90;;;;;;5037290;28;20181;-74
2022/10/28 06:54:34;;;;;;;5.60;2.67;;;19.40;99.90;;;;;;5054380;28;20182;-74
2022/10/28 06:56:59;;;;;;;4.43;2.60;;;19.40;99.90;;;;;;5034898;28;20189;-74
2022/10/28 06:59:25;;;;;;;7.25;2.40;;;19.40;99.90;;;;;;5042875;28;20197;-74
2022/10/28 07:01:53;;;;;;;7.43;3.15;;;19.40;99.90;;;;;;5021522;28;20236;-74
2022/10/28 07:04:18;;;;;;;4.72;2.72;;;19.40;99.90;;;;;;5030639;28;20186;-74
2022/10/28 07:06:44;;;;;;;5.82;2.97;;;19.40;99.90;;;;;;5032663;28;20170;-74
2022/10/28 07:09:13;;;;;;;7.55;2.78;;;19.40;99.90;;;;;;5046249;28;20195;-75
2022/10/28 07:11:47;;;;;;;5.38;2.72;;;19.50;99.90;;;;;;5034004;28;20205;-74
2022/10/28 07:14:12;;;;;;;8.38;2.95;;;19.50;99.90;;;;;;5046997;28;20196;-73
2022/10/28 07:16:38;;;;;;;5.45;2.63;;;19.50;99.90;;;;;;5028955;28;20203;-75
2022/10/28 07:19:07;;;;;;;6.35;2.88;;;19.50;99.90;;;;;;5034829;28;20194;-72
2022/10/28 07:21:33;;;;;;;6.32;2.72;;;19.50;99.90;;;;;;5034093;28;20178;-74
2022/10/28 07:23:59;;;;;;;5.82;2.90;;;19.50;99.90;;;;;;5035287;28;20232;-74
2022/10/28 07:26:25;;;;;;;6.38;2.70;;;19.50;99.90;;;;;;5049477;28;20177;-75
2022/10/28 07:28:50;;;;;;;9.45;3.22;;;19.60;99.90;;;;;;5031487;28;20213;-75
2022/10/28 07:31:16;;;;;;;7.78;2.88;;;19.60;99.90;;;;;;5050836;28;20200;-76
2022/10/28 07:33:42;;;;;;;4.78;2.83;;;19.60;99.90;;;;;;5054972;28;20181;-75
2022/10/28 07:36:12;;;;;;;7.85;3.03;;;19.60;99.90;;;;;;5045532;28;20232;-76
2022/10/28 07:38:39;;;;;;;8.23;3.17;;;19.70;99.90;;;;;;5031332;28;20202;-75
2022/10/28 07:41:10;;;;;;;5.88;3.03;;;19.70;99.90;;;;;;5031358;28;20197;-74
2022/10/28 07:43:38;;;;;;;4.68;2.80;;;19.70;99.90;;;;;;5032420;28;20288;-74
2022/10/28 07:46:06;;;;;;;4.22;2.50;;;19.70;99.90;;;;;;5025249;28;20302;-75
2022/10/28 07:48:37;;;;;;;4.53;2.60;;;19.70;99.90;;;;;;5036006;28;20178;-74
2022/10/28 07:51:07;;;;;;;5.18;2.92;;;19.80;99.90;;;;;;5033645;28;20206;-74
2022/10/28 07:53:33;;;;;;;5.88;2.85;;;19.80;99.90;;;;;;5034196;28;20186;-74
2022/10/28 07:56:01;;;;;;;6.47;3.00;;;19.80;99.90;;;;;;5034371;28;20193;-76
2022/10/28 07:58:27;;;;;;;7.00;3.63;;;19.90;99.90;;;;;;5021699;28;20359;-74
2022/10/28 08:00:55;;;;;;;4.97;2.88;;;19.90;99.90;;;;;;5034823;28;20251;-75
2022/10/28 08:03:29;;;;;;;6.80;3.13;;;19.90;99.90;;;;;;5021057;28;20240;-75
2022/10/28 08:06:04;;;;;;;6.97;2.90;;;20.00;99.90;;;;;;5034002;28;20166;-73
2022/10/28 08:08:29;;;;;;;10.95;3.72;;;20.00;99.90;;;;;;5032100;28;20182;-73
2022/10/28 08:10:55;;;;;;;5.93;3.00;;;20.10;99.90;;;;;;5033701;28;20178;-75
2022/10/28 08:13:23;;;;;;;5.78;3.08;;;20.10;99.90;;;;;;5034123;28;20180;-74
2022/10/28 08:15:53;;;;;;;7.43;3.25;;;20.20;99.90;;;;;;5039830;28;20177;-74
2022/10/28 08:18:19;;;;;;;6.35;3.05;;;20.20;99.90;;;;;;5037597;28;20288;-74
2022/10/28 08:20:47;;;;;;;6.90;3.20;;;20.30;99.90;;;;;;5033983;28;20284;-73
2022/10/28 08:23:13;;;;;;;4.45;2.67;;;20.30;99.90;;;;;;5035365;28;20190;-73
2022/10/28 08:25:47;;;;;;;5.78;2.97;;;20.40;99.90;;;;;;5040405;28;20170;-74
2022/10/28 08:28:20;;;;;;;6.72;2.90;;;20.50;99.90;;;;;;5036292;28;20212;-74
2022/10/28 08:30:47;;;;;;;5.22;2.70;;;20.50;99.90;;;;;;5033314;28;20208;-75
2022/10/28 08:33:13;;;;;;;5.03;2.78;;;20.60;99.90;;;;;;5020180;28;20306;-75
2022/10/28 08:35:43;;;;;;;4.93;2.83;;;20.70;99.90;;;;;;5028517;28;20178;-75
2022/10/28 08:38:09;;;;;;;8.98;2.97;;;20.70;99.90;;;;;;5036997;28;20195;-74
2022/10/28 08:40:40;;;;;;;5.45;2.50;;;20.80;99.90;;;;;;5034125;28;20261;-74
2022/10/28 08:43:20;;;;;;;8.30;2.80;;;20.90;99.90;;;;;;5026417;28;20170;-75
2022/10/28 08:46:21;;;;;;;6.30;2.65;;;20.90;99.90;;;;;;5032619;28;20170;-76
2022/10/28 08:48:47;;;;;;;6.40;2.35;;;21.00;99.90;;;;;;4995496;28;20187;-75
2022/10/28 08:51:23;;;;;;;6.18;2.65;;;21.00;99.90;;;;;;5015010;28;20215;-74
2022/10/28 08:53:57;;;;;;;4.47;2.17;;;21.10;99.90;;;;;;5034519;28;20169;-74
2022/10/28 08:56:47;;;;;;;6.22;2.90;;;21.20;99.90;;;;;;5028002;28;20189;-75
2022/10/28 08:59:20;;;;;;;4.50;2.60;;;21.20;99.90;;;;;;5046591;28;20193;-75
2022/10/28 09:01:49;;;;;;;3.75;2.63;;;21.30;99.90;;;;;;5046499;28;20166;-75
2022/10/28 09:04:40;;;;;;;6.18;2.47;;;21.40;99.90;;;;;;5037130;28;20198;-74
2022/10/28 09:07:17;;;;;;;6.70;2.83;;;21.60;99.90;;;;;;5040504;28;20173;-75
2022/10/28 09:09:44;;;;;;;5.15;2.22;;;21.90;99.90;;;;;;5042329;28;20174;-74
2022/10/28 09:12:28;;;;;;;4.50;2.50;;;22.30;99.90;;;;;;5020997;28;20257;-76
2022/10/28 09:15:08;;;;;;;5.88;2.75;;;22.80;99.90;;;;;;5035207;28;20212;-75
2022/10/28 09:17:53;;;;;;;6.63;2.53;;;23.40;99.90;;;;;;5053566;28;20201;-75
2022/10/28 09:20:45;;;;;;;4.43;2.30;;;23.80;99.90;;;;;;5036827;28;20182;-75
2022/10/28 09:23:21;;;;;;;5.22;2.60;;;24.10;99.90;;;;;;5029625;28;20175;-75
2022/10/28 09:26:26;;;;;;;6.10;2.65;;;24.50;99.90;;;;;;5017064;28;20288;-75
2022/10/28 09:29:16;;;;;;;8.77;2.55;;;24.80;99.90;;;;;;5039892;28;20232;-76
2022/10/28 09:31:47;;;;;;;4.95;2.50;;;25.20;99.90;;;;;;5028669;28;20206;-75
2022/10/28 09:34:17;;;;;;;8.90;2.50;;;25.50;99.90;;;;;;5034763;28;20186;-74
2022/10/28 09:36:51;;;;;;;5.32;2.78;;;25.80;99.90;;;;;;5025863;28;20185;-75
2022/10/28 09:39:21;;;;;;;8.75;2.75;;;26.10;99.90;;;;;;5036635;28;20217;-75
2022/10/28 09:41:50;;;;;;;6.63;2.70;;;26.30;99.90;;;;;;5037402;28;20184;-75
2022/10/28 09:44:22;;;;;;;6.18;2.83;;;26.50;99.90;;;;;;5029328;28;20170;-74
2022/10/28 09:46:54;;;;;;;3.92;2.22;;;26.40;99.90;;;;;;5043483;28;20185;-75
2022/10/28 09:49:25;;;;;;;8.07;2.80;;;26.30;99.90;;;;;;5055231;28;20188;-75
2022/10/28 09:52:16;;;;;;;4.65;2.28;;;26.10;99.90;;;;;;5034970;28;20265;-74
2022/10/28 09:54:52;;;;;;;5.25;2.47;;;25.90;99.90;;;;;;5053494;28;20182;-74
2022/10/28 09:57:19;;;;;;;4.00;2.30;;;25.80;99.90;;;;;;5045937;28;20181;-75
2022/10/28 09:59:45;;;;;;;6.13;2.90;;;25.80;99.90;;;;;;5037548;28;20202;-75
2022/10/28 10:02:24;;;;;;;5.07;2.50;;;25.80;99.90;;;;;;5041929;28;20257;-75
2022/10/28 10:04:52;;;;;;;5.03;2.60;;;25.70;99.90;;;;;;5052828;28;20170;-75
2022/10/28 10:07:29;;;;;;;4.45;2.47;;;25.60;99.90;;;;;;5037045;28;20178;-75
2022/10/28 10:09:56;;;;;;;6.30;2.53;;;25.50;99.90;;;;;;5036932;28;20178;-75
2022/10/28 10:12:25;;;;;;;7.15;2.78;;;25.50;99.90;;;;;;5033461;28;20209;-75
2022/10/28 10:14:55;;;;;;;5.15;2.63;;;25.50;99.90;;;;;;5036313;28;20181;-73
2022/10/28 10:17:30;;;;;;;6.00;2.60;;;25.50;99.90;;;;;;5032173;28;20195;-75
2022/10/28 10:20:09;;;;;;;4.53;2.78;;;25.70;99.90;;;;;;5026869;28;20228;-75
2022/10/28 10:22:44;;;;;;;6.53;2.92;;;25.80;99.90;;;;;;5035801;28;20177;-75
2022/10/28 10:25:19;;;;;;;9.88;2.65;;;25.90;99.90;;;;;;5036093;28;20260;-75
2022/10/28 10:27:56;;;;;;;7.45;2.78;;;26.10;99.90;;;;;;5034951;28;20297;-75
2022/10/28 10:30:24;;;;;;;8.10;3.22;;;26.30;99.90;;;;;;5036931;28;20227;-75
2022/10/28 10:32:51;;;;;;;8.25;2.90;;;26.40;99.90;;;;;;5031610;28;20241;-74
2022/10/28 10:35:33;;;;;;;5.13;2.60;;;26.60;99.90;;;;;;5029616;28;20343;-75
2022/10/28 10:38:00;;;;;;;7.75;2.67;;;26.70;99.90;;;;;;5048905;28;20192;-76
2022/10/28 10:40:35;;;;;;;5.53;2.42;;;26.70;99.90;;;;;;5048821;28;20202;-75
2022/10/28 10:43:28;;;;;;;5.10;2.42;;;26.70;99.90;;;;;;5033680;28;20180;-75
2022/10/28 10:46:15;;;;;;;7.10;2.42;;;26.60;99.90;;;;;;5049820;28;20248;-75
2022/10/28 10:48:44;;;;;;;7.47;3.22;;;26.50;99.90;;;;;;5037629;28;20178;-75
2022/10/28 10:51:29;;;;;;;7.32;2.38;;;26.40;99.90;;;;;;5035083;28;20193;-75
2022/10/28 10:53:59;;;;;;;4.80;2.58;;;26.20;99.90;;;;;;5035145;28;20295;-73
2022/10/28 10:56:31;;;;;;;5.15;2.40;;;26.10;99.90;;;;;;5031978;28;20197;-74
2022/10/28 10:59:04;;;;;;;5.57;2.60;;;26.00;99.90;;;;;;5035150;28;20228;-74
2022/10/28 11:01:37;;;;;;;6.43;2.65;;;25.90;99.90;;;;;;5035161;28;20174;-74
2022/10/28 11:04:13;;;;;;;6.25;2.30;;;25.80;99.90;;;;;;5036694;28;20231;-74
2022/10/28 11:06:42;;;;;;;5.72;2.47;;;25.80;99.90;;;;;;5058137;28;20200;-74
2022/10/28 11:09:31;;;;;;;6.50;2.65;;;25.70;99.90;;;;;;5045230;28;20186;-75
2022/10/28 11:11:57;;;;;;;9.60;2.75;;;25.70;99.90;;;;;;5035753;28;20196;-75
2022/10/28 11:14:29;;;;;;;4.55;2.35;;;25.80;99.90;;;;;;5054734;28;20185;-74
2022/10/28 11:17:01;;;;;;;7.68;2.75;;;25.80;99.90;;;;;;5018328;28;20242;-75
2022/10/28 11:19:35;;;;;;;5.43;2.50;;;26.00;99.90;;;;;;5029752;28;20212;-75
2022/10/28 11:22:28;;;;;;;4.50;2.35;;;26.10;99.90;;;;;;5035201;28;20242;-74
2022/10/28 11:25:02;;;;;;;7.63;3.30;;;26.10;99.90;;;;;;5032294;28;20194;-74
2022/10/28 11:27:40;;;;;;;5.88;2.78;;;26.10;99.90;;;;;;5026588;28;20229;-74
2022/10/28 11:30:13;;;;;;;7.30;2.80;;;26.10;99.90;;;;;;5027904;28;20181;-74
2022/10/28 11:32:41;;;;;;;5.63;3.00;;;26.00;99.90;;;;;;5040725;28;20162;-74
2022/10/28 11:35:38;;;;;;;6.38;2.53;;;26.00;99.90;;;;;;5021340;28;20202;-74
2022/10/28 11:38:44;;;;;;;7.30;2.88;;;26.10;99.90;;;;;;5045991;28;20189;-75
2022/10/28 11:41:29;;;;;;;6.63;3.00;;;26.10;99.90;;;;;;4997289;28;20212;-74
2022/10/28 11:43:59;;;;;;;5.97;2.55;;;26.20;99.90;;;;;;5029490;28;20253;-74
2022/10/28 11:46:37;;;;;;;7.38;2.83;;;26.40;99.90;;;;;;5034870;28;21827;-75
2022/10/28 11:49:25;;;;;;;4.90;2.35;;;26.50;99.90;;;;;;5033689;28;20201;-74
2022/10/28 11:52:10;;;;;;;6.63;2.60;;;26.60;99.90;;;;;;5033958;28;20174;-75
2022/10/28 11:55:00;;;;;;;7.65;2.70;;;26.70;99.90;;;;;;5033221;28;20224;-75
2022/10/28 11:57:50;;;;;;;6.55;2.45;;;26.70;99.90;;;;;;5040063;28;20206;-77
2022/10/28 12:00:35;;;;;;;7.43;2.60;;;26.70;99.90;;;;;;5025539;28;20177;-75
2022/10/28 12:03:19;;;;;;;6.55;2.40;;;26.80;99.90;;;;;;5033440;28;20178;-74
2022/10/28 12:06:01;;;;;;;6.43;2.13;;;26.80;99.90;;;;;;5043917;28;20181;-75
2022/10/28 12:08:40;;;;;;;6.03;2.53;;;27.00;99.90;;;;;;5035265;28;20371;-74
2022/10/28 12:11:24;;;;;;;5.47;2.63;;;27.10;99.90;;;;;;5029667;28;20231;-75
2022/10/28 12:13:53;;;;;;;7.75;2.80;;;27.20;99.90;;;;;;5038195;28;20178;-73
2022/10/28 12:16:40;;;;;;;5.80;2.55;;;27.30;99.90;;;;;;5056754;28;20254;-74
2022/10/28 12:19:37;;;;;;;5.88;2.65;;;27.50;99.90;;;;;;5053959;28;20201;-76
2022/10/28 12:22:31;;;;;;;6.43;2.50;;;27.60;99.90;;;;;;5045543;28;20205;-75
2022/10/28 12:25:01;;;;;;;6.75;2.20;;;27.80;99.90;;;;;;5051945;28;20182;-75
2022/10/28 12:27:36;;;;;;;7.30;2.22;;;27.90;99.90;;;;;;5038192;28;20388;-77
2022/10/28 12:30:33;;;;;;;7.47;2.80;;;28.00;99.90;;;;;;5038229;28;20173;-76
2022/10/28 12:33:21;;;;;;;8.90;3.00;;;28.00;99.90;;;;;;5042194;28;20182;-75
2022/10/28 12:36:09;;;;;;;5.85;2.60;;;28.00;99.90;;;;;;5045694;28;20183;-74
2022/10/28 12:38:50;;;;;;;6.40;2.28;;;28.00;99.90;;;;;;5031622;28;20206;-77
2022/10/28 12:41:32;;;;;;;6.82;2.42;;;27.90;99.90;;;;;;5021190;28;20202;-76
2022/10/28 12:44:08;;;;;;;6.13;2.25;;;27.90;99.90;;;;;;5008846;28;20186;-74
2022/10/28 12:46:47;;;;;;;5.72;2.65;;;27.80;99.90;;;;;;5052139;28;20201;-75
2022/10/28 12:49:22;;;;;;;5.45;2.47;;;27.60;99.90;;;;;;5031955;28;20179;-75
2022/10/28 12:51:51;;;;;;;5.38;2.38;;;27.60;99.90;;;;;;5032289;28;20203;-75
2022/10/28 12:54:35;;;;;;;7.82;2.08;;;27.50;99.90;;;;;;5035893;28;20348;-74
2022/10/28 12:57:12;;;;;;;6.60;2.40;;;27.50;99.90;;;;;;5028609;28;20257;-76
2022/10/28 12:59:44;;;;;;;9.18;2.67;;;27.40;99.90;;;;;;5029911;28;20224;-75
2022/10/28 13:02:24;;;;;;;6.07;2.70;;;27.40;99.90;;;;;;5039751;28;20174;-74
2022/10/28 13:04:50;;;;;;;5.95;2.67;;;27.40;99.90;;;;;;5047293;28;20182;-74
2022/10/28 13:07:55;;;;;;;8.55;2.58;;;27.40;99.90;;;;;;5042999;28;20209;-75
2022/10/28 13:10:31;;;;;;;7.00;2.30;;;27.30;99.90;;;;;;5034490;28;20260;-74
2022/10/28 13:13:15;;;;;;;8.82;2.85;;;27.30;99.90;;;;;;5034668;28;20288;-76